createdAt,value
2022-10-26T00:01:16.653Z,12.90
2022-10-26T00:03:45.429Z,13.50
2022-10-26T00:06:22.380Z,12.90
2022-10-26T00:08:49.903Z,12.90
2022-10-26T00:11:18.626Z,12.90
2022-10-26T00:13:46.971Z,13.60
2022-10-26T00:16:23.391Z,12.70
2022-10-26T00:18:51.225Z,12.70
2022-10-26T00:21:18.672Z,12.70
2022-10-26T00:23:45.774Z,12.80
2022-10-26T00:26:12.688Z,12.70
2022-10-26T00:28:39.624Z,12.80
2022-10-26T00:31:16.133Z,12.80
2022-10-26T00:33:43.111Z,12.80
2022-10-26T00:36:11.307Z,12.80
2022-10-26T00:38:38.476Z,12.80
2022-10-26T00:41:05.628Z,12.80
2022-10-26T00:43:33.906Z,12.80
2022-10-26T00:46:03.046Z,12.80
2022-10-26T00:48:38.421Z,12.70
2022-10-26T00:51:17.919Z,12.80
2022-10-26T00:53:44.991Z,12.80
2022-10-26T00:56:12.116Z,12.80
2022-10-26T00:58:40.820Z,12.70
2022-10-26T01:01:10.107Z,13.70
2022-10-26T01:03:38.260Z,12.80
2022-10-26T01:06:06.806Z,12.70
2022-10-26T01:08:34.318Z,12.80
2022-10-26T01:11:07.349Z,12.80
2022-10-26T01:13:36.253Z,12.70
2022-10-26T01:16:12.032Z,12.80
2022-10-26T01:18:41.977Z,12.70
2022-10-26T01:21:55.667Z,12.80
2022-10-26T01:25:02.282Z,12.80
2022-10-26T01:27:38.651Z,12.70
2022-10-26T01:30:26.869Z,12.70
2022-10-26T01:33:18.728Z,12.70
2022-10-26T01:35:50.710Z,12.70
2022-10-26T01:38:29.762Z,12.90
2022-10-26T01:41:06.315Z,12.70
2022-10-26T01:43:37.612Z,12.80
2022-10-26T01:46:06.795Z,12.70
2022-10-26T01:48:39.467Z,12.60
2022-10-26T01:51:07.789Z,12.70
2022-10-26T01:53:34.759Z,12.70
2022-10-26T01:56:02.454Z,12.60
2022-10-26T01:58:58.606Z,12.70
2022-10-26T02:01:52.071Z,12.70
2022-10-26T02:04:59.310Z,12.70
2022-10-26T02:07:57.686Z,12.70
2022-10-26T02:11:02.725Z,12.70
2022-10-26T02:13:45.144Z,12.60
2022-10-26T02:16:37.740Z,12.60
2022-10-26T02:19:42.930Z,12.70
2022-10-26T02:22:25.218Z,12.60
2022-10-26T02:24:53.959Z,12.70
2022-10-26T02:27:27.113Z,12.70
2022-10-26T02:29:56.914Z,12.60
2022-10-26T02:32:28.395Z,12.70
2022-10-26T02:34:58.886Z,12.50
2022-10-26T02:37:27.658Z,12.70
2022-10-26T02:39:58.217Z,12.60
2022-10-26T02:42:27.045Z,12.60
2022-10-26T02:45:05.185Z,12.70
2022-10-26T02:47:32.986Z,12.60
2022-10-26T02:50:00.258Z,12.60
2022-10-26T02:52:48.697Z,12.60
2022-10-26T02:55:28.684Z,11.60
2022-10-26T02:58:02.379Z,12.60
2022-10-26T03:00:30.821Z,12.60
2022-10-26T03:03:03.559Z,12.60
2022-10-26T03:05:32.813Z,12.60
2022-10-26T03:08:00.667Z,12.60
2022-10-26T03:10:27.750Z,12.60
2022-10-26T03:12:57.477Z,12.60
2022-10-26T03:15:24.500Z,12.60
2022-10-26T03:17:51.839Z,12.60
2022-10-26T03:20:19.145Z,12.60
2022-10-26T03:22:48.622Z,12.60
2022-10-26T03:25:15.951Z,12.70
2022-10-26T03:27:43.336Z,12.60
2022-10-26T03:30:10.798Z,12.70
2022-10-26T03:32:38.669Z,12.70
2022-10-26T03:35:05.853Z,12.70
2022-10-26T03:37:33.061Z,12.60
2022-10-26T03:40:00.022Z,12.60
2022-10-26T03:42:28.057Z,12.60
2022-10-26T03:44:55.077Z,12.70
2022-10-26T03:47:22.093Z,12.60
2022-10-26T03:49:49.133Z,12.60
2022-10-26T03:52:16.091Z,12.60
2022-10-26T03:54:43.041Z,12.70
2022-10-26T03:57:10.094Z,12.70
2022-10-26T03:59:37.444Z,12.60
2022-10-26T04:02:05.687Z,12.60
2022-10-26T04:04:32.939Z,12.60
2022-10-26T04:07:00.002Z,12.50
2022-10-26T04:09:27.055Z,12.60
2022-10-26T04:11:54.199Z,12.60
2022-10-26T04:14:21.362Z,12.60
2022-10-26T04:16:48.505Z,12.60
2022-10-26T04:19:20.741Z,12.60
2022-10-26T04:21:48.192Z,12.70
2022-10-26T04:24:15.321Z,12.60
2022-10-26T04:26:42.458Z,12.50
2022-10-26T04:29:10.050Z,12.60
2022-10-26T04:31:37.140Z,12.60
2022-10-26T04:34:04.427Z,12.60
2022-10-26T04:36:31.587Z,12.50
2022-10-26T04:38:58.519Z,12.50
2022-10-26T04:41:25.470Z,12.60
2022-10-26T04:43:52.426Z,12.50
2022-10-26T04:46:19.405Z,12.60
2022-10-26T04:48:48.710Z,12.50
2022-10-26T04:51:17.301Z,12.50
2022-10-26T04:53:44.378Z,12.40
2022-10-26T04:56:11.431Z,12.40
2022-10-26T04:58:38.381Z,12.40
2022-10-26T05:01:05.642Z,12.50
2022-10-26T05:03:32.662Z,12.50
2022-10-26T05:06:01.383Z,12.40
2022-10-26T05:08:29.965Z,12.60
2022-10-26T05:10:57.205Z,13.40
2022-10-26T05:13:24.550Z,12.40
2022-10-26T05:15:54.398Z,12.50
2022-10-26T05:18:21.758Z,12.30
2022-10-26T05:20:50.294Z,12.50
2022-10-26T05:23:18.710Z,12.50
2022-10-26T05:25:47.584Z,12.50
2022-10-26T05:28:16.145Z,12.50
2022-10-26T05:30:44.905Z,12.40
2022-10-26T05:33:14.151Z,12.50
2022-10-26T05:35:41.515Z,12.50
2022-10-26T05:38:09.601Z,12.50
2022-10-26T05:40:37.057Z,12.50
2022-10-26T05:43:04.688Z,12.50
2022-10-26T05:45:36.746Z,12.50
2022-10-26T05:48:05.638Z,12.60
2022-10-26T05:50:32.861Z,12.60
2022-10-26T05:53:00.138Z,12.70
2022-10-26T05:55:27.945Z,12.70
2022-10-26T05:57:55.507Z,12.60
2022-10-26T06:00:28.805Z,12.70
2022-10-26T06:06:01.588Z,12.40
2022-10-26T06:08:31.899Z,12.60
2022-10-26T06:11:03.101Z,12.50
2022-10-26T06:13:30.485Z,12.60
2022-10-26T06:16:28.468Z,12.60
2022-10-26T06:19:38.148Z,12.70
2022-10-26T06:22:13.711Z,12.80
2022-10-26T06:25:02.143Z,12.80
2022-10-26T06:27:56.644Z,12.90
2022-10-26T06:30:23.588Z,12.80
2022-10-26T06:33:01.439Z,12.80
2022-10-26T06:35:41.276Z,12.70
2022-10-26T06:38:13.695Z,12.70
2022-10-26T06:40:45.168Z,12.70
2022-10-26T06:43:38.692Z,12.60
2022-10-26T06:46:28.584Z,12.60
2022-10-26T06:49:25.133Z,12.70
2022-10-26T06:51:59.110Z,12.60
2022-10-26T06:54:50.372Z,12.70
2022-10-26T06:57:23.663Z,12.60
2022-10-26T07:00:00.595Z,12.60
2022-10-26T07:02:28.385Z,12.60
2022-10-26T07:04:55.735Z,12.60
2022-10-26T07:07:26.141Z,12.60
2022-10-26T07:09:53.521Z,12.60
2022-10-26T07:12:20.844Z,12.50
2022-10-26T07:14:48.172Z,12.50
2022-10-26T07:17:17.086Z,12.60
2022-10-26T07:19:44.937Z,12.60
2022-10-26T07:22:12.148Z,12.60
2022-10-26T07:24:39.986Z,12.50
2022-10-26T07:27:06.990Z,12.70
2022-10-26T07:29:35.346Z,12.60
2022-10-26T07:32:02.993Z,12.60
2022-10-26T07:34:30.051Z,12.60
2022-10-26T07:37:00.261Z,12.70
2022-10-26T07:39:27.966Z,12.60
2022-10-26T07:41:55.374Z,12.70
2022-10-26T07:44:22.424Z,12.80
2022-10-26T07:46:49.380Z,12.70
2022-10-26T07:49:19.273Z,12.80
2022-10-26T07:51:46.855Z,12.70
2022-10-26T07:54:13.795Z,12.80
2022-10-26T07:56:40.785Z,12.90
2022-10-26T07:59:07.769Z,12.80
2022-10-26T08:01:34.937Z,12.90
2022-10-26T08:04:02.118Z,13.00
2022-10-26T08:06:29.076Z,12.60
2022-10-26T08:08:56.243Z,13.00
2022-10-26T08:11:23.239Z,13.00
2022-10-26T08:13:53.534Z,12.90
2022-10-26T08:16:21.427Z,13.00
2022-10-26T08:18:49.671Z,13.00
2022-10-26T08:21:21.568Z,13.30
2022-10-26T08:23:53.021Z,13.10
2022-10-26T08:26:21.219Z,13.20
2022-10-26T08:28:50.062Z,13.20
2022-10-26T08:31:17.134Z,13.40
2022-10-26T08:33:45.048Z,13.40
2022-10-26T08:36:13.716Z,13.50
2022-10-26T08:38:40.732Z,13.50
2022-10-26T08:41:09.331Z,13.50
2022-10-26T08:43:55.652Z,13.60
2022-10-26T08:46:30.924Z,13.90
2022-10-26T08:49:05.188Z,14.00
2022-10-26T08:51:37.487Z,14.00
2022-10-26T08:54:15.602Z,13.90
2022-10-26T08:56:51.074Z,13.90
2022-10-26T08:59:39.103Z,14.00
2022-10-26T09:02:14.172Z,14.10
2022-10-26T09:04:41.803Z,14.10
2022-10-26T09:07:24.362Z,14.10
2022-10-26T09:10:08.713Z,14.10
2022-10-26T09:12:49.323Z,14.20
2022-10-26T09:15:24.703Z,14.20
2022-10-26T09:18:16.175Z,14.40
2022-10-26T09:21:01.278Z,14.30
2022-10-26T09:23:57.551Z,14.50
2022-10-26T09:26:51.229Z,14.40
2022-10-26T09:29:19.422Z,14.50
2022-10-26T09:31:50.811Z,14.60
2022-10-26T09:34:47.491Z,14.60
2022-10-26T09:37:28.901Z,14.80
2022-10-26T09:40:15.738Z,14.80
2022-10-26T09:42:59.249Z,14.90
2022-10-26T09:45:35.707Z,15.00
2022-10-26T09:48:13.633Z,15.30
2022-10-26T09:50:45.657Z,15.30
2022-10-26T09:53:12.863Z,15.30
2022-10-26T09:55:45.208Z,15.20
2022-10-26T09:58:24.150Z,15.40
2022-10-26T10:00:52.307Z,15.60
2022-10-26T10:03:31.699Z,15.40
2022-10-26T10:06:19.952Z,15.50
2022-10-26T10:09:12.327Z,15.70
2022-10-26T10:11:55.282Z,15.80
2022-10-26T10:14:34.779Z,16.20
2022-10-26T10:17:17.750Z,16.40
2022-10-26T10:19:44.668Z,16.40
2022-10-26T10:22:23.402Z,16.60
2022-10-26T10:24:56.860Z,16.40
2022-10-26T10:27:24.998Z,16.50
2022-10-26T10:30:01.341Z,16.50
2022-10-26T10:32:35.745Z,16.50
2022-10-26T10:35:29.949Z,16.50
2022-10-26T10:37:57.824Z,16.50
2022-10-26T10:40:28.265Z,16.70
2022-10-26T10:43:12.253Z,16.70
2022-10-26T10:45:40.577Z,16.70
2022-10-26T10:48:16.249Z,16.80
2022-10-26T10:51:00.498Z,16.80
2022-10-26T10:53:38.505Z,16.90
2022-10-26T10:56:17.481Z,17.10
2022-10-26T10:59:08.485Z,17.70
2022-10-26T11:01:54.854Z,17.20
2022-10-26T11:04:58.439Z,17.20
2022-10-26T11:07:28.342Z,17.20
2022-10-26T11:09:56.980Z,17.30
2022-10-26T11:12:49.507Z,17.20
2022-10-26T11:15:22.729Z,17.20
2022-10-26T11:18:17.941Z,17.20
2022-10-26T11:21:01.956Z,17.40
2022-10-26T11:23:42.586Z,17.40
2022-10-26T11:26:31.798Z,17.40
2022-10-26T11:29:04.702Z,17.60
2022-10-26T11:31:44.915Z,17.60
2022-10-26T11:34:26.429Z,17.80
2022-10-26T11:37:03.474Z,17.80
2022-10-26T11:39:41.336Z,17.70
2022-10-26T11:42:37.911Z,17.60
2022-10-26T11:45:29.517Z,17.60
2022-10-26T11:48:15.028Z,17.50
2022-10-26T11:50:51.277Z,17.70
2022-10-26T11:53:24.684Z,17.90
2022-10-26T11:55:54.585Z,17.90
2022-10-26T11:58:26.843Z,18.10
2022-10-26T12:01:01.379Z,17.60
2022-10-26T12:03:43.832Z,17.70
2022-10-26T12:06:12.178Z,18.00
2022-10-26T12:08:43.655Z,18.10
2022-10-26T12:11:32.164Z,18.10
2022-10-26T12:14:23.996Z,18.20
2022-10-26T12:17:21.445Z,18.20
2022-10-26T12:20:29.501Z,18.30
2022-10-26T12:22:57.201Z,18.10
2022-10-26T12:25:24.131Z,18.50
2022-10-26T12:27:56.650Z,19.20
2022-10-26T12:30:33.146Z,19.70
2022-10-26T12:33:22.118Z,19.50
2022-10-26T12:35:49.040Z,19.30
2022-10-26T12:38:39.329Z,19.00
2022-10-26T12:41:10.641Z,18.90
2022-10-26T12:43:40.279Z,18.80
2022-10-26T12:46:13.239Z,18.80
2022-10-26T12:48:48.557Z,19.30
2022-10-26T12:51:30.153Z,18.50
2022-10-26T12:54:35.931Z,18.40
2022-10-26T12:57:05.453Z,18.30
2022-10-26T13:00:17.181Z,18.80
2022-10-26T13:02:59.706Z,18.50
2022-10-26T13:06:06.748Z,18.90
2022-10-26T13:08:44.073Z,18.70
2022-10-26T13:11:38.206Z,18.80
2022-10-26T13:14:08.735Z,18.80
2022-10-26T13:16:35.963Z,18.50
2022-10-26T13:19:02.952Z,18.50
2022-10-26T13:21:29.905Z,18.20
2022-10-26T13:24:05.229Z,18.30
2022-10-26T13:26:33.279Z,18.70
2022-10-26T13:29:03.181Z,18.70
2022-10-26T13:31:32.866Z,18.70
2022-10-26T13:34:16.059Z,18.90
2022-10-26T13:37:00.401Z,18.60
2022-10-26T13:39:38.843Z,18.30
2022-10-26T13:42:07.541Z,18.20
2022-10-26T13:44:54.554Z,18.20
2022-10-26T13:47:30.216Z,18.40
2022-10-26T13:50:04.806Z,18.50
2022-10-26T13:52:41.457Z,18.50
2022-10-26T13:55:21.628Z,18.90
2022-10-26T13:58:22.846Z,19.20
2022-10-26T14:01:24.870Z,19.10
2022-10-26T14:03:51.998Z,19.20
2022-10-26T14:06:38.124Z,19.40
2022-10-26T14:09:13.673Z,19.00
2022-10-26T14:11:50.063Z,19.10
2022-10-26T14:14:37.924Z,19.20
2022-10-26T14:17:05.465Z,19.30
2022-10-26T14:19:40.825Z,19.20
2022-10-26T14:22:08.039Z,19.30
2022-10-26T14:24:48.424Z,19.10
2022-10-26T14:27:18.399Z,19.20
2022-10-26T14:29:49.785Z,19.10
2022-10-26T14:32:33.768Z,19.20
2022-10-26T14:35:00.801Z,19.00
2022-10-26T14:37:58.684Z,19.00
2022-10-26T14:40:30.485Z,18.80
2022-10-26T14:43:00.240Z,18.60
2022-10-26T14:45:48.129Z,18.70
2022-10-26T14:48:30.804Z,18.40
2022-10-26T14:51:17.375Z,18.30
2022-10-26T14:54:01.063Z,18.30
2022-10-26T14:56:37.211Z,18.20
2022-10-26T14:59:31.351Z,18.10
2022-10-26T15:01:59.912Z,18.00
2022-10-26T15:04:42.376Z,17.90
2022-10-26T15:07:14.966Z,17.70
2022-10-26T15:09:45.422Z,17.70
2022-10-26T15:12:35.014Z,17.70
2022-10-26T15:15:23.679Z,17.80
2022-10-26T15:17:54.876Z,17.70
2022-10-26T15:20:25.246Z,17.60
2022-10-26T15:22:58.587Z,17.50
2022-10-26T15:25:29.788Z,17.80
2022-10-26T15:28:25.415Z,17.70
2022-10-26T15:31:06.568Z,17.50
2022-10-26T15:33:34.409Z,17.30
2022-10-26T15:36:20.270Z,17.40
2022-10-26T15:38:51.673Z,17.30
2022-10-26T15:41:34.000Z,17.20
2022-10-26T15:44:05.991Z,17.30
2022-10-26T15:46:36.153Z,17.20
2022-10-26T15:49:07.047Z,17.10
2022-10-26T15:51:34.771Z,17.10
2022-10-26T15:54:05.387Z,17.00
2022-10-26T15:56:32.718Z,17.00
2022-10-26T15:58:59.990Z,17.00
2022-10-26T16:01:29.118Z,17.00
2022-10-26T16:03:56.357Z,17.00
2022-10-26T16:06:35.326Z,16.90
2022-10-26T16:09:05.884Z,16.80
2022-10-26T16:11:33.200Z,16.90
2022-10-26T16:14:03.530Z,16.70
2022-10-26T16:16:31.284Z,16.80
2022-10-26T16:19:18.458Z,16.70
2022-10-26T16:21:45.301Z,16.70
2022-10-26T16:24:12.339Z,16.60
2022-10-26T16:26:39.299Z,16.50
2022-10-26T16:29:06.305Z,16.70
2022-10-26T16:31:33.321Z,17.30
2022-10-26T16:34:03.288Z,16.50
2022-10-26T16:36:34.064Z,16.40
2022-10-26T16:41:29.114Z,16.40
2022-10-26T16:43:56.578Z,16.40
2022-10-26T16:46:23.935Z,16.50
2022-10-26T16:48:52.095Z,16.30
2022-10-26T16:51:26.494Z,16.30
2022-10-26T16:53:56.050Z,16.30
2022-10-26T16:56:27.464Z,16.30
2022-10-26T16:58:54.958Z,16.20
2022-10-26T17:01:22.853Z,16.30
2022-10-26T17:03:51.822Z,16.20
2022-10-26T17:06:19.499Z,16.10
2022-10-26T17:08:46.765Z,16.00
2022-10-26T17:11:17.872Z,16.00
2022-10-26T17:13:45.348Z,15.90
2022-10-26T17:16:19.503Z,15.90
2022-10-26T17:18:47.927Z,16.00
2022-10-26T17:21:17.972Z,15.90
2022-10-26T17:23:45.530Z,16.00
2022-10-26T17:26:14.488Z,16.10
2022-10-26T17:28:41.772Z,16.00
2022-10-26T17:31:15.084Z,16.10
2022-10-26T17:33:44.720Z,16.10
2022-10-26T17:36:13.762Z,16.00
2022-10-26T17:38:42.677Z,16.00
2022-10-26T17:41:12.888Z,16.00
2022-10-26T17:43:41.795Z,16.00
2022-10-26T17:46:21.312Z,15.90
2022-10-26T17:48:48.296Z,15.90
2022-10-26T17:51:19.322Z,15.80
2022-10-26T17:53:51.021Z,15.40
2022-10-26T17:56:22.623Z,15.60
2022-10-26T17:58:56.032Z,15.50
2022-10-26T18:01:23.508Z,15.60
2022-10-26T18:03:51.165Z,15.70
2022-10-26T18:06:18.239Z,15.70
2022-10-26T18:08:45.943Z,15.70
2022-10-26T18:11:26.959Z,15.70
2022-10-26T18:13:55.878Z,15.90
2022-10-26T18:16:25.080Z,15.70
2022-10-26T18:19:02.053Z,15.70
2022-10-26T18:21:32.650Z,15.80
2022-10-26T18:23:59.797Z,15.70
2022-10-26T18:26:28.749Z,15.50
2022-10-26T18:28:57.148Z,15.50
2022-10-26T18:31:26.222Z,15.40
2022-10-26T18:34:01.995Z,15.50
2022-10-26T18:36:30.088Z,15.40
2022-10-26T18:38:57.948Z,15.40
2022-10-26T18:41:25.555Z,15.30
2022-10-26T18:43:56.532Z,15.30
2022-10-26T18:46:27.905Z,15.20
2022-10-26T18:48:55.979Z,15.30
2022-10-26T18:51:26.049Z,15.30
2022-10-26T18:53:52.947Z,15.30
2022-10-26T18:56:21.960Z,15.20
2022-10-26T18:58:52.282Z,15.20
2022-10-26T19:01:22.009Z,15.20
2022-10-26T19:04:00.689Z,15.20
2022-10-26T19:06:47.279Z,15.10
2022-10-26T19:09:18.620Z,15.00
2022-10-26T19:11:45.945Z,15.00
2022-10-26T19:14:13.907Z,15.00
2022-10-26T19:16:46.005Z,15.10
2022-10-26T19:19:15.957Z,15.10
2022-10-26T19:21:43.298Z,15.10
2022-10-26T19:24:21.537Z,15.00
2022-10-26T19:26:50.425Z,15.00
2022-10-26T19:29:18.392Z,15.00
2022-10-26T19:31:47.548Z,14.90
2022-10-26T19:34:16.202Z,14.80
2022-10-26T19:36:47.165Z,14.90
2022-10-26T19:39:18.243Z,14.80
2022-10-26T19:41:46.672Z,14.90
2022-10-26T19:44:15.072Z,14.80
2022-10-26T19:46:43.775Z,14.80
2022-10-26T19:49:12.386Z,14.80
2022-10-26T19:51:41.918Z,14.80
2022-10-26T19:54:08.894Z,14.80
2022-10-26T19:56:37.402Z,14.80
2022-10-26T19:59:05.578Z,14.80
2022-10-26T20:01:33.109Z,14.70
2022-10-26T20:04:02.418Z,14.70
2022-10-26T20:06:30.628Z,14.70
2022-10-26T20:08:57.656Z,14.70
2022-10-26T20:11:24.719Z,14.60
2022-10-26T20:13:51.728Z,14.60
2022-10-26T20:16:19.521Z,14.60
2022-10-26T20:18:48.898Z,14.60
2022-10-26T20:21:17.845Z,14.70
2022-10-26T20:23:45.809Z,15.30
2022-10-26T20:26:19.409Z,14.60
2022-10-26T20:28:53.204Z,14.60
2022-10-26T20:31:20.266Z,14.60
2022-10-26T20:33:52.160Z,14.60
2022-10-26T20:36:19.155Z,15.50
2022-10-26T20:38:46.612Z,14.50
2022-10-26T20:41:14.175Z,14.50
2022-10-26T20:43:42.490Z,14.60
2022-10-26T20:46:23.553Z,14.40
2022-10-26T20:48:51.975Z,14.30
2022-10-26T20:52:22.446Z,14.40
2022-10-26T20:55:16.426Z,14.40
2022-10-26T20:57:54.570Z,14.20
2022-10-26T21:00:21.869Z,14.40
2022-10-26T21:02:49.143Z,14.40
2022-10-26T21:05:18.267Z,14.30
2022-10-26T21:07:45.220Z,14.30
2022-10-26T21:10:12.173Z,14.30
2022-10-26T21:12:39.053Z,14.30
2022-10-26T21:15:07.092Z,14.30
2022-10-26T21:17:34.412Z,14.30
2022-10-26T21:20:01.318Z,14.10
2022-10-26T21:22:28.234Z,14.20
2022-10-26T21:24:55.093Z,14.30
2022-10-26T21:27:21.971Z,14.10
2022-10-26T21:29:48.884Z,14.20
2022-10-26T21:32:15.859Z,14.20
2022-10-26T21:34:42.933Z,14.10
2022-10-26T21:37:09.798Z,14.20
2022-10-26T21:39:36.700Z,14.20
2022-10-26T21:42:03.689Z,14.10
2022-10-26T21:44:41.005Z,14.20
2022-10-26T21:47:09.268Z,14.10
2022-10-26T21:49:38.731Z,14.10
2022-10-26T21:52:07.332Z,14.10
2022-10-26T21:54:34.225Z,13.90
2022-10-26T21:57:01.131Z,14.00
2022-10-26T21:59:28.063Z,14.00
2022-10-26T22:01:55.080Z,13.90
2022-10-26T22:04:22.199Z,14.00
2022-10-26T22:06:49.106Z,14.10
2022-10-26T22:09:16.047Z,13.90
2022-10-26T22:11:42.980Z,13.90
2022-10-26T22:14:09.932Z,14.00
2022-10-26T22:16:36.821Z,14.00
2022-10-26T22:19:07.220Z,14.00
2022-10-26T22:21:37.700Z,13.90
2022-10-26T22:24:05.685Z,13.80
2022-10-26T22:26:36.310Z,13.90
2022-10-26T22:29:04.278Z,13.80
2022-10-26T22:31:35.214Z,13.80
2022-10-26T22:34:07.691Z,14.10
2022-10-26T22:36:35.866Z,13.80
2022-10-26T22:39:03.285Z,13.80
2022-10-26T22:41:30.534Z,13.70
2022-10-26T22:43:57.571Z,13.70
2022-10-26T22:46:27.472Z,13.70
2022-10-26T22:49:00.293Z,13.80
2022-10-26T22:51:33.441Z,13.70
2022-10-26T22:54:03.162Z,13.70
2022-10-26T22:56:33.567Z,13.70
2022-10-26T22:59:00.605Z,13.70
2022-10-26T23:01:36.069Z,13.70
2022-10-26T23:04:03.172Z,13.70
2022-10-26T23:06:31.708Z,13.70
2022-10-26T23:08:59.319Z,13.70
2022-10-26T23:11:28.388Z,13.60
2022-10-26T23:13:58.331Z,13.70
2022-10-26T23:16:26.682Z,13.60
2022-10-26T23:18:54.227Z,13.60
2022-10-26T23:21:23.835Z,13.50
2022-10-26T23:23:50.758Z,13.60
2022-10-26T23:26:21.350Z,13.70
2022-10-26T23:28:50.082Z,13.50
2022-10-26T23:31:23.556Z,13.50
2022-10-26T23:33:51.613Z,13.50
2022-10-26T23:36:19.591Z,13.40
2022-10-26T23:38:47.484Z,13.50
2022-10-26T23:41:15.165Z,13.50
2022-10-26T23:43:42.216Z,13.50
2022-10-26T23:46:09.243Z,13.40
2022-10-26T23:48:36.777Z,13.40
2022-10-26T23:51:03.850Z,13.40
2022-10-26T23:53:30.912Z,13.40
2022-10-26T23:55:57.819Z,13.40
2022-10-26T23:58:24.921Z,13.30
